Time;durP1;ratioP1;P1;durP2;ratioP2;P2;SDS_P1;SDS_P2;PMS_P1;PMS_P2;Temp;Humidity;BMP_temperature;BMP_pressure;BME280_temperature;BME280_humidity;BME280_pressure;Samples;Min_cycle;Max_cycle;Signal;HPM_P1;HPM_P2
2022/06/09 00:01:13;;;;;;;4.25;1.40;;;;;;;12.18;79.16;91833.25;4725580;30;20108;-76
2022/06/09 00:03:50;;;;;;;2.70;1.50;;;;;;;12.14;78.55;91832.31;4754219;30;20039;-77
2022/06/09 00:06:16;;;;;;;4.60;1.40;;;;;;;12.12;77.92;91831.84;4770785;30;20047;-76
2022/06/09 00:08:47;;;;;;;2.88;1.40;;;;;;;12.07;78.18;91824.91;4770738;30;20048;-75
2022/06/09 00:11:17;;;;;;;4.65;1.40;;;;;;;12.03;78.32;91824.00;4754614;30;20051;-76
2022/06/09 00:13:44;;;;;;;3.72;1.50;;;;;;;12.01;77.76;91828.00;4766867;30;20036;-76
2022/06/09 00:16:10;;;;;;;3.60;1.23;;;;;;;11.97;77.32;91822.59;4772191;30;20153;-76
2022/06/09 00:18:36;;;;;;;2.60;1.27;;;;;;;11.96;77.06;91828.19;4772312;30;20083;-76
2022/06/09 00:21:03;;;;;;;2.72;1.20;;;;;;;11.94;76.62;91827.72;4788200;30;20039;-76
2022/06/09 00:23:29;;;;;;;5.40;1.10;;;;;;;11.91;76.48;91828.31;4760947;30;20063;-76
2022/06/09 00:25:55;;;;;;;2.22;1.00;;;;;;;11.90;76.42;91827.56;4754185;30;20032;-76
2022/06/09 00:28:22;;;;;;;6.18;1.30;;;;;;;11.90;76.18;91830.19;4770260;30;20067;-76
2022/06/09 00:30:47;;;;;;;1.85;1.05;;;;;;;11.90;75.51;91827.56;4749887;30;20038;-76
2022/06/09 00:33:13;;;;;;;2.40;1.00;;;;;;;11.90;74.98;91826.78;4752311;30;20119;-76
2022/06/09 00:35:39;;;;;;;2.03;1.00;;;;;;;11.90;75.35;91824.94;4755420;30;20043;-76
2022/06/09 00:38:05;;;;;;;2.22;1.27;;;;;;;11.90;75.08;91829.41;4765640;30;20036;-76
2022/06/09 00:40:32;;;;;;;3.13;1.00;;;;;;;11.90;74.94;91824.16;4752355;30;20125;-76
2022/06/09 00:42:59;;;;;;;1.20;0.73;;;;;;;11.86;74.90;91819.50;4736345;30;20052;-76
2022/06/09 00:45:30;;;;;;;2.40;1.20;;;;;;;11.85;75.10;91817.19;4765682;30;20135;-76
2022/06/09 00:48:06;;;;;;;2.00;1.00;;;;;;;11.82;74.65;91815.97;4754053;30;20036;-77
2022/06/09 00:50:36;;;;;;;3.17;1.30;;;;;;;11.81;74.72;91824.91;4766089;30;20479;-76
2022/06/09 00:53:07;;;;;;;2.25;1.00;;;;;;;11.76;74.70;91824.28;4765041;30;20024;-76
2022/06/09 00:55:34;;;;;;;3.63;0.95;;;;;;;11.77;74.49;91816.09;4752366;30;20517;-76
2022/06/09 00:58:06;;;;;;;1.27;0.90;;;;;;;11.76;74.26;91821.69;4752469;30;20519;-76
2022/06/09 01:00:46;;;;;;;3.28;0.90;;;;;;;11.75;74.52;91823.50;4767448;30;20044;-76
2022/06/09 01:03:12;;;;;;;1.83;0.70;;;;;;;11.74;74.71;91823.84;4753777;30;20058;-76
2022/06/09 01:05:40;;;;;;;2.83;1.00;;;;;;;11.74;73.57;91821.22;4753586;30;20464;-76
2022/06/09 01:08:07;;;;;;;1.63;0.90;;;;;;;11.74;73.39;91821.22;4753724;30;20070;-76
2022/06/09 01:10:33;;;;;;;1.35;0.88;;;;;;;11.72;73.93;91808.41;4769507;30;20052;-76
2022/06/09 01:12:59;;;;;;;4.22;0.95;;;;;;;11.73;73.52;91815.19;4765705;30;20177;-76
2022/06/09 01:15:37;;;;;;;1.15;0.75;;;;;;;11.74;73.15;91806.25;4769408;30;20062;-76
2022/06/09 01:18:31;;;;;;;3.65;0.80;;;;;;;11.75;73.19;91807.78;4769274;30;20054;-76
2022/06/09 01:21:09;;;;;;;0.85;0.70;;;;;;;11.73;73.50;91809.97;4753414;30;20558;-76
2022/06/09 01:23:37;;;;;;;1.60;0.90;;;;;;;11.71;73.69;91806.06;4736150;30;20055;-76
2022/06/09 01:26:26;;;;;;;0.82;0.65;;;;;;;11.71;73.37;91811.31;4769331;30;20061;-76
2022/06/09 01:29:17;;;;;;;4.30;0.90;;;;;;;11.69;73.37;91803.78;4768381;30;20432;-76
2022/06/09 01:32:00;;;;;;;0.80;0.70;;;;;;;11.70;72.98;91805.31;4769388;30;20036;-76
2022/06/09 01:34:39;;;;;;;3.03;1.10;;;;;;;11.71;72.68;91808.69;4767804;30;20036;-76
2022/06/09 01:37:27;;;;;;;1.13;0.70;;;;;;;11.71;72.75;91806.88;4768850;30;20514;-76
2022/06/09 01:39:59;;;;;;;1.73;0.80;;;;;;;11.71;72.59;91806.06;4749678;30;20063;-76
2022/06/09 01:42:28;;;;;;;2.03;0.75;;;;;;;11.71;72.67;91806.88;4752338;30;20051;-76
2022/06/09 01:45:02;;;;;;;2.35;0.90;;;;;;;11.74;71.63;91805.47;4768256;30;20035;-76
2022/06/09 01:47:49;;;;;;;3.03;1.00;;;;;;;11.85;70.78;91806.72;4737288;30;20130;-76
2022/06/09 01:50:30;;;;;;;1.33;0.80;;;;;;;11.92;71.28;91806.28;4750899;30;20042;-76
2022/06/09 01:52:58;;;;;;;1.88;0.85;;;;;;;11.91;70.49;91805.50;4750965;30;20051;-77
2022/06/09 01:55:26;;;;;;;1.55;1.00;;;;;;;11.93;70.73;91803.31;4751801;30;20043;-76
2022/06/09 01:57:57;;;;;;;2.88;1.00;;;;;;;11.95;70.08;91803.78;4751794;30;20039;-76
2022/06/09 02:00:24;;;;;;;1.85;1.02;;;;;;;12.00;70.62;91808.09;4763043;30;20042;-76
2022/06/09 02:02:54;;;;;;;1.73;1.00;;;;;;;12.05;69.30;91815.81;4747347;30;20044;-76
2022/06/09 02:05:26;;;;;;;1.48;0.80;;;;;;;12.10;68.82;91813.03;4750091;30;20032;-76
2022/06/09 02:07:55;;;;;;;3.30;1.63;;;;;;;12.15;68.35;91810.25;4734488;30;20101;-76
2022/06/09 02:10:37;;;;;;;1.65;1.00;;;;;;;12.19;69.65;91823.50;4750582;30;20040;-76
2022/06/09 02:13:14;;;;;;;2.65;1.00;;;;;;;12.13;71.57;91822.88;4766825;30;20035;-76
2022/06/09 02:15:55;;;;;;;3.60;0.80;;;;;;;12.13;69.13;91817.66;4766589;30;20416;-76
2022/06/09 02:18:24;;;;;;;1.48;0.90;;;;;;;12.18;68.20;91820.13;4780823;30;20084;-75
2022/06/09 02:21:04;;;;;;;1.75;1.00;;;;;;;12.16;70.01;91824.91;4785519;30;20027;-76
2022/06/09 02:23:30;;;;;;;0.73;0.70;;;;;;;12.11;70.13;91826.91;4751691;30;20087;-76
2022/06/09 02:25:56;;;;;;;1.83;1.10;;;;;;;12.10;68.93;91828.78;4751763;30;20163;-76
2022/06/09 02:28:21;;;;;;;0.90;0.77;;;;;;;12.07;68.95;91827.53;4737235;30;20483;-76
2022/06/09 02:30:47;;;;;;;6.80;0.90;;;;;;;12.08;69.75;91836.19;4767534;30;20524;-76
2022/06/09 02:33:12;;;;;;;2.53;1.02;;;;;;;12.12;69.96;91828.47;4751481;30;20050;-76
2022/06/09 02:35:39;;;;;;;1.35;0.90;;;;;;;12.22;65.76;91828.91;4751975;30;20112;-76
2022/06/09 02:38:04;;;;;;;1.42;0.90;;;;;;;12.34;64.61;91817.78;4751895;30;20078;-76
2022/06/09 02:40:31;;;;;;;4.22;0.90;;;;;;;12.41;64.53;91820.69;4730040;30;1128788;-76
2022/06/09 02:42:57;;;;;;;1.50;0.88;;;;;;;12.46;64.60;91827.63;4752620;30;20592;-76
2022/06/09 02:45:23;;;;;;;4.20;0.90;;;;;;;12.49;64.35;91821.75;4752130;30;20111;-76
2022/06/09 02:47:49;;;;;;;1.67;0.85;;;;;;;12.54;64.44;91826.03;4768011;30;20506;-76
2022/06/09 02:50:15;;;;;;;1.23;0.77;;;;;;;12.54;63.85;91829.47;4752244;30;20044;-76
2022/06/09 02:52:41;;;;;;;1.05;0.80;;;;;;;12.56;64.11;91837.78;4752397;30;20055;-76
2022/06/09 02:55:09;;;;;;;2.47;0.73;;;;;;;12.58;63.49;91832.97;4737316;30;20039;-76
2022/06/09 02:57:35;;;;;;;1.50;1.02;;;;;;;12.59;63.07;91829.28;4752445;30;20109;-76
2022/06/09 03:00:00;;;;;;;1.92;0.90;;;;;;;12.57;65.48;91834.06;4767959;30;20056;-76
2022/06/09 03:02:26;;;;;;;1.67;0.70;;;;;;;12.49;65.55;91827.00;4770005;30;20046;-76
2022/06/09 03:04:52;;;;;;;1.73;0.80;;;;;;;12.44;65.19;91827.16;4755746;30;20056;-76
2022/06/09 03:07:17;;;;;;;1.77;0.80;;;;;;;12.43;64.13;91836.91;4771809;30;20072;-76
2022/06/09 03:09:43;;;;;;;0.70;0.50;;;;;;;12.46;62.38;91830.25;4771702;30;20052;-76
2022/06/09 03:12:09;;;;;;;0.60;0.60;;;;;;;12.52;61.36;91828.22;4755699;30;20039;-76
2022/06/09 03:14:36;;;;;;;0.98;0.55;;;;;;;12.57;60.42;91830.69;4755630;30;20046;-76
2022/06/09 03:17:02;;;;;;;0.70;0.60;;;;;;;12.61;60.58;91831.56;4755378;30;20035;-76
2022/06/09 03:19:28;;;;;;;2.10;0.80;;;;;;;12.59;61.64;91833.78;4755606;30;20043;-76
2022/06/09 03:21:54;;;;;;;0.80;0.70;;;;;;;12.61;61.14;91837.63;4770990;30;20054;-76
2022/06/09 03:24:20;;;;;;;1.25;0.80;;;;;;;12.65;59.12;91835.13;4739505;30;20499;-76
2022/06/09 03:26:46;;;;;;;0.90;0.68;;;;;;;12.73;59.10;91844.06;4737735;30;20086;-75
2022/06/09 03:29:12;;;;;;;2.40;0.73;;;;;;;12.82;56.46;91853.47;4753497;30;20032;-76
2022/06/09 03:31:37;;;;;;;0.50;0.50;;;;;;;12.86;57.97;91857.00;4753554;30;20052;-76
2022/06/09 03:34:03;;;;;;;1.60;0.77;;;;;;;12.88;59.06;91856.69;4753439;30;20044;-76
2022/06/09 03:36:31;;;;;;;0.77;0.60;;;;;;;12.87;58.96;91855.91;4737315;30;20047;-76
2022/06/09 03:38:58;;;;;;;2.42;0.80;;;;;;;13.01;55.95;91849.66;4737485;30;20543;-76
2022/06/09 03:41:24;;;;;;;2.95;0.73;;;;;;;13.03;56.69;91853.50;4753355;30;20048;-76
2022/06/09 03:43:50;;;;;;;0.75;0.50;;;;;;;13.13;56.37;91852.41;4752055;30;20189;-75
2022/06/09 03:46:15;;;;;;;0.98;0.85;;;;;;;13.19;56.64;91859.00;4737357;30;20532;-76
2022/06/09 03:48:41;;;;;;;0.60;0.60;;;;;;;13.23;56.14;91859.16;4753302;30;20071;-76
2022/06/09 03:51:06;;;;;;;1.23;0.65;;;;;;;13.26;56.66;91858.50;4753567;30;20069;-76
2022/06/09 03:53:32;;;;;;;2.50;0.70;;;;;;;13.39;55.58;91862.81;4737489;30;20056;-76
2022/06/09 03:55:58;;;;;;;0.60;0.60;;;;;;;13.41;54.90;91863.25;4761953;30;20043;-76
2022/06/09 03:58:24;;;;;;;1.45;0.60;;;;;;;13.42;55.69;91864.81;4740397;30;20127;-76
2022/06/09 04:00:50;;;;;;;0.50;0.50;;;;;;;13.39;55.97;91868.06;4754729;30;20059;-76
2022/06/09 04:03:15;;;;;;;0.40;0.40;;;;;;;13.39;56.46;91862.81;4740250;30;20435;-76
2022/06/09 04:05:41;;;;;;;4.57;0.60;;;;;;;13.50;55.67;91868.47;4770653;30;20578;-76
2022/06/09 04:08:11;;;;;;;1.38;0.60;;;;;;;13.49;55.91;91877.47;4751757;30;20039;-76
2022/06/09 04:10:36;;;;;;;1.33;0.73;;;;;;;13.49;56.03;91870.34;4767895;30;20050;-76
2022/06/09 04:13:03;;;;;;;1.55;0.60;;;;;;;13.51;55.55;91873.41;4752618;30;20127;-76
2022/06/09 04:15:29;;;;;;;0.90;0.60;;;;;;;13.53;55.53;91876.50;4757768;30;20390;-76
2022/06/09 04:17:55;;;;;;;0.95;0.60;;;;;;;13.54;55.82;91874.63;4761381;30;20043;-76
2022/06/09 04:20:24;;;;;;;1.33;0.70;;;;;;;13.56;55.72;91879.59;4751579;30;20495;-76
2022/06/09 04:22:50;;;;;;;0.93;0.50;;;;;;;13.58;55.73;91878.19;4752756;30;20032;-76
2022/06/09 04:25:17;;;;;;;0.85;0.52;;;;;;;13.65;54.89;91886.31;4736597;30;20518;-76
2022/06/09 04:27:42;;;;;;;0.40;0.40;;;;;;;13.71;55.04;91881.63;4767747;30;20047;-76
2022/06/09 04:30:09;;;;;;;0.40;0.40;;;;;;;13.74;54.90;91875.75;4752464;30;20044;-76
2022/06/09 04:32:35;;;;;;;0.65;0.50;;;;;;;13.88;54.74;91889.41;4753282;30;20044;-76
2022/06/09 04:35:00;;;;;;;0.40;0.40;;;;;;;13.90;55.24;91895.13;4770238;30;20374;-76
2022/06/09 04:37:59;;;;;;;1.60;0.50;;;;;;;13.98;54.75;91883.00;4763573;30;20141;-77
2022/06/09 04:40:12;;;;;;;0.63;0.60;;;;;;;14.08;54.90;91884.47;4748559;30;20052;-76
2022/06/09 04:42:38;;;;;;;0.68;0.55;;;;;;;14.11;55.14;91883.84;4771526;30;20130;-76
2022/06/09 04:45:04;;;;;;;0.40;0.40;;;;;;;14.13;55.22;91886.91;4753859;30;20063;-76
2022/06/09 04:47:29;;;;;;;5.03;0.60;;;;;;;14.15;55.79;91887.38;4763032;30;20056;-76
2022/06/09 04:49:55;;;;;;;2.03;0.50;;;;;;;14.16;56.22;91894.16;4758361;30;20796;-76
2022/06/09 04:52:20;;;;;;;1.30;0.60;;;;;;;14.16;56.82;91897.59;4754420;30;20040;-76
2022/06/09 04:54:46;;;;;;;0.77;0.40;;;;;;;14.13;55.82;91889.53;4753770;30;20042;-76
2022/06/09 04:57:12;;;;;;;0.32;0.32;;;;;;;14.21;55.59;91899.25;4757561;30;20048;-78
2022/06/09 04:59:37;;;;;;;0.63;0.50;;;;;;;14.21;56.78;91901.88;4748533;30;20499;-78
2022/06/09 05:02:03;;;;;;;1.13;0.80;;;;;;;14.20;57.32;91905.59;4760184;30;20131;-78
2022/06/09 05:04:28;;;;;;;0.88;0.52;;;;;;;14.18;57.89;91910.41;4770928;30;20051;-78
2022/06/09 05:06:54;;;;;;;0.90;0.52;;;;;;;14.14;57.47;91912.16;4762247;30;20036;-78
2022/06/09 05:09:20;;;;;;;0.40;0.40;;;;;;;14.15;56.68;91922.34;4776119;30;20053;-78
2022/06/09 05:11:46;;;;;;;0.35;0.35;;;;;;;14.16;56.83;91917.84;4764751;30;20047;-78
2022/06/09 05:14:13;;;;;;;0.40;0.40;;;;;;;14.22;55.98;91921.84;4779949;30;20487;-78
2022/06/09 05:16:38;;;;;;;0.40;0.40;;;;;;;14.26;55.95;91924.59;4780083;30;20040;-77
2022/06/09 05:19:04;;;;;;;1.65;0.40;;;;;;;14.31;56.18;91927.03;4764344;30;20554;-78
2022/06/09 05:21:30;;;;;;;0.85;0.40;;;;;;;14.33;56.66;91927.47;4749069;30;20491;-77
2022/06/09 05:23:55;;;;;;;0.45;0.40;;;;;;;14.36;57.07;91943.41;4760043;30;20036;-77
2022/06/09 05:26:21;;;;;;;0.30;0.30;;;;;;;14.44;57.80;91938.41;4744841;30;20126;-77
2022/06/09 05:28:47;;;;;;;1.77;0.52;;;;;;;14.53;56.59;91947.75;4772042;30;20419;-76
2022/06/09 05:31:13;;;;;;;0.40;0.30;;;;;;;14.59;55.83;91945.75;4771173;30;20059;-78
2022/06/09 05:33:39;;;;;;;0.40;0.40;;;;;;;14.66;55.50;91950.47;4771317;30;20048;-80
2022/06/09 05:36:05;;;;;;;0.30;0.30;;;;;;;14.73;53.99;91950.72;4754373;30;20067;-77
2022/06/09 05:46:44;;;;;;;0.30;0.30;;;;;;;16.07;51.55;91944.06;4758286;30;20043;-77
2022/06/09 05:49:10;;;;;;;0.60;0.40;;;;;;;16.89;49.76;91955.38;4760731;30;20043;-77
2022/06/09 05:51:36;;;;;;;0.30;0.30;;;;;;;17.67;46.86;91949.44;4761830;30;20051;-78
2022/06/09 05:54:03;;;;;;;0.65;0.30;;;;;;;18.40;45.84;91954.44;4762642;30;20035;-78
2022/06/09 05:56:29;;;;;;;0.30;0.30;;;;;;;19.00;43.88;91957.53;4778406;30;20514;-78
2022/06/09 05:58:55;;;;;;;0.38;0.38;;;;;;;19.60;42.55;91951.75;4762488;30;20056;-78
2022/06/09 06:01:21;;;;;;;0.40;0.30;;;;;;;20.11;41.45;91948.75;4763634;30;20069;-78
2022/06/09 06:03:47;;;;;;;0.30;0.30;;;;;;;20.64;39.81;91955.19;4780633;30;20054;-78
2022/06/09 06:08:57;;;;;;;2.72;0.55;;;;;;;21.52;40.20;91956.53;4785123;30;20502;-79
2022/06/09 06:11:43;;;;;;;0.30;0.30;;;;;;;22.07;37.08;91951.28;4771297;30;20043;-78
2022/06/09 06:14:09;;;;;;;0.40;0.40;;;;;;;22.41;36.14;91943.88;4801267;29;20039;-78
2022/06/09 06:16:36;;;;;;;0.50;0.40;;;;;;;22.65;34.86;91950.50;4800006;30;20042;-79
2022/06/09 06:19:03;;;;;;;0.28;0.28;;;;;;;23.11;31.26;91951.06;4784358;30;20054;-78
2022/06/09 06:21:29;;;;;;;1.05;0.50;;;;;;;23.00;32.36;91951.78;4800186;30;20031;-78
2022/06/09 06:23:55;;;;;;;0.63;0.40;;;;;;;23.19;32.48;91952.59;4770069;30;20043;-79
2022/06/09 06:26:21;;;;;;;0.70;0.50;;;;;;;23.36;30.74;91954.56;4782318;30;20043;-79
2022/06/09 06:28:47;;;;;;;0.32;0.32;;;;;;;23.31;29.99;91954.94;4780003;30;20035;-79
2022/06/09 06:31:13;;;;;;;0.32;0.32;;;;;;;22.69;33.19;91953.16;4800020;30;20051;-79
2022/06/09 06:33:39;;;;;;;0.75;0.47;;;;;;;22.30;30.71;91945.72;4800152;29;20043;-78
2022/06/09 06:36:04;;;;;;;1.98;0.40;;;;;;;21.92;33.63;91946.97;4797848;30;20031;-78
2022/06/09 06:38:30;;;;;;;0.90;0.40;;;;;;;21.87;35.12;91939.31;4797799;30;20047;-78
2022/06/09 06:40:56;;;;;;;0.40;0.40;;;;;;;21.88;36.66;91946.94;4751823;30;20495;-79
2022/06/09 06:43:22;;;;;;;4.68;0.50;;;;;;;21.85;36.41;91945.00;4783719;30;20073;-79
2022/06/09 06:45:47;;;;;;;2.47;0.40;;;;;;;22.06;36.82;91951.63;4783939;30;20064;-80
2022/06/09 06:48:14;;;;;;;2.08;0.50;;;;;;;22.12;37.80;91948.25;4776556;30;20051;-77
2022/06/09 06:50:40;;;;;;;1.98;0.50;;;;;;;22.06;35.60;91951.63;4723819;30;20139;-77
2022/06/09 06:53:07;;;;;;;1.45;0.43;;;;;;;21.68;34.41;91964.28;4737476;30;20060;-77
2022/06/09 06:55:32;;;;;;;0.60;0.35;;;;;;;21.79;36.47;91952.56;4753353;30;20123;-77
2022/06/09 06:57:58;;;;;;;0.82;0.40;;;;;;;22.05;37.69;91972.19;4736241;30;20123;-77
2022/06/09 07:00:24;;;;;;;1.73;0.60;;;;;;;22.16;35.94;91962.38;4752019;30;20093;-77
2022/06/09 07:02:50;;;;;;;3.50;0.60;;;;;;;22.15;36.79;91966.16;4752504;30;20047;-77
2022/06/09 07:05:18;;;;;;;1.17;0.52;;;;;;;22.35;35.08;91973.94;4736174;30;20051;-77
2022/06/09 07:07:44;;;;;;;0.63;0.50;;;;;;;22.40;35.22;91968.25;4722314;30;20392;-76
2022/06/09 07:10:10;;;;;;;0.45;0.45;;;;;;;22.47;32.94;91968.28;4752121;30;20048;-77
2022/06/09 07:12:37;;;;;;;0.57;0.43;;;;;;;22.61;33.52;91970.28;4751825;30;20141;-77
2022/06/09 07:15:04;;;;;;;0.63;0.50;;;;;;;22.69;33.22;91973.75;4706738;30;20119;-77
2022/06/09 07:17:29;;;;;;;1.63;0.60;;;;;;;22.40;34.14;91963.69;4751959;30;20136;-77
2022/06/09 07:19:55;;;;;;;0.52;0.40;;;;;;;22.36;33.72;91975.44;4720866;30;20044;-77
2022/06/09 07:22:21;;;;;;;1.40;0.50;;;;;;;22.53;33.91;91966.81;4721184;30;20407;-77
2022/06/09 07:24:47;;;;;;;0.40;0.40;;;;;;;22.55;33.97;91974.44;4751223;30;20131;-77
2022/06/09 07:27:13;;;;;;;0.25;0.25;;;;;;;22.83;34.18;91977.25;4736193;30;20047;-77
2022/06/09 07:29:39;;;;;;;0.88;0.35;;;;;;;23.00;34.62;91975.81;4751520;30;20028;-77
2022/06/09 07:32:06;;;;;;;2.22;0.40;;;;;;;23.13;33.27;91983.50;4737007;30;20052;-77
2022/06/09 07:34:32;;;;;;;0.25;0.25;;;;;;;23.04;29.84;91981.94;4737806;30;20032;-77
2022/06/09 07:36:58;;;;;;;0.15;0.15;;;;;;;22.91;30.10;91991.38;4753097;30;20073;-77
2022/06/09 07:39:24;;;;;;;2.10;0.43;;;;;;;22.72;29.38;91986.31;4751601;30;20068;-77
2022/06/09 07:41:50;;;;;;;1.15;0.40;;;;;;;22.74;30.55;91994.72;4752491;30;20052;-77
2022/06/09 07:44:16;;;;;;;1.60;0.35;;;;;;;22.66;30.79;91988.59;4735407;30;20032;-77
2022/06/09 07:46:42;;;;;;;0.65;0.30;;;;;;;22.47;32.59;91992.28;4736027;30;20367;-77
2022/06/09 07:49:08;;;;;;;2.05;0.57;;;;;;;22.02;32.25;91994.22;4754667;30;20098;-77
2022/06/09 07:51:34;;;;;;;0.40;0.40;;;;;;;22.02;32.00;91997.69;4739584;30;20062;-77
2022/06/09 07:54:00;;;;;;;1.70;0.60;;;;;;;22.19;32.11;92006.19;4754534;30;20105;-77
2022/06/09 07:56:26;;;;;;;0.80;0.30;;;;;;;22.35;30.82;92003.25;4724027;30;20044;-77
2022/06/09 07:58:52;;;;;;;1.75;0.88;;;;;;;22.20;30.12;92013.81;4738638;30;20052;-77
2022/06/09 08:01:20;;;;;;;1.30;0.30;;;;;;;22.38;31.37;92010.50;4754061;30;20058;-77
2022/06/09 08:03:46;;;;;;;2.10;0.63;;;;;;;22.49;31.57;92010.59;4753826;30;20408;-77
2022/06/09 08:06:13;;;;;;;0.20;0.20;;;;;;;22.04;29.96;92007.94;4738209;30;20040;-77
2022/06/09 08:08:39;;;;;;;1.10;0.50;;;;;;;21.92;30.47;92009.00;4754218;30;20047;-77
2022/06/09 08:11:05;;;;;;;2.10;0.40;;;;;;;22.10;31.97;92024.38;4738379;30;20048;-77
2022/06/09 08:13:32;;;;;;;0.30;0.30;;;;;;;22.23;30.81;92015.75;4737637;30;20031;-77
2022/06/09 08:15:58;;;;;;;1.15;0.55;;;;;;;22.43;30.92;92013.59;4737653;30;20051;-77
2022/06/09 08:18:24;;;;;;;0.90;0.43;;;;;;;22.54;30.08;92020.91;4753420;30;20051;-76
2022/06/09 08:20:50;;;;;;;0.50;0.40;;;;;;;22.33;27.73;92013.53;4753588;30;20399;-76
2022/06/09 08:23:23;;;;;;;1.88;0.40;;;;;;;22.22;31.60;92016.13;4737572;30;20052;-77
2022/06/09 08:25:50;;;;;;;1.25;0.55;;;;;;;22.13;29.95;92004.97;4753201;30;20044;-77
2022/06/09 08:28:20;;;;;;;2.25;0.60;;;;;;;22.16;30.20;92006.91;4752240;30;20404;-77
2022/06/09 08:30:52;;;;;;;0.47;0.40;;;;;;;21.78;28.44;92007.00;4753589;30;20052;-77
2022/06/09 08:33:18;;;;;;;2.15;0.50;;;;;;;21.65;31.29;92021.69;4752949;30;20142;-77
2022/06/09 08:35:45;;;;;;;0.82;0.50;;;;;;;21.50;29.55;92012.78;4752921;30;20036;-77
2022/06/09 08:38:11;;;;;;;0.98;0.50;;;;;;;21.26;33.19;92014.06;4737447;30;20040;-77
2022/06/09 08:41:08;;;;;;;1.65;0.70;;;;;;;21.53;34.15;92016.66;4735169;30;20091;-76
2022/06/09 08:43:36;;;;;;;1.33;0.60;;;;;;;21.04;32.56;92017.59;4734115;30;20225;-76
2022/06/09 08:46:23;;;;;;;1.33;0.77;;;;;;;21.38;33.08;92011.13;4734618;30;20496;-76
2022/06/09 08:48:50;;;;;;;0.50;0.40;;;;;;;21.75;29.52;92009.59;4734661;30;20048;-76
2022/06/09 08:51:30;;;;;;;1.92;0.65;;;;;;;21.68;31.54;92012.22;4733597;30;20445;-76
2022/06/09 08:54:05;;;;;;;4.38;0.85;;;;;;;21.62;34.44;92009.13;4734735;30;20359;-76
2022/06/09 08:56:31;;;;;;;2.33;0.70;;;;;;;21.92;36.30;92021.56;4734431;30;20068;-76
2022/06/09 08:59:13;;;;;;;1.05;0.38;;;;;;;21.93;31.30;92007.09;4732904;30;20048;-76
2022/06/09 09:02:11;;;;;;;1.40;0.43;;;;;;;21.95;30.78;92002.16;4734702;30;20402;-76
2022/06/09 09:04:48;;;;;;;0.80;0.47;;;;;;;22.01;30.85;92008.69;4733107;30;20535;-76
2022/06/09 09:07:30;;;;;;;1.67;0.82;;;;;;;21.79;29.30;92011.16;4733322;30;20049;-76
2022/06/09 09:10:11;;;;;;;0.90;0.38;;;;;;;21.56;29.16;92015.91;4734386;30;20504;-76
2022/06/09 09:13:16;;;;;;;1.20;0.50;;;;;;;21.57;32.02;92006.78;4733169;30;20052;-76
2022/06/09 09:15:53;;;;;;;0.80;0.50;;;;;;;21.74;29.08;92002.75;4747861;30;20044;-76
2022/06/09 09:18:38;;;;;;;0.88;0.55;;;;;;;20.99;28.31;92014.13;4732971;30;20055;-76
2022/06/09 09:21:29;;;;;;;0.40;0.30;;;;;;;21.26;32.55;92026.59;4732951;30;20040;-75
2022/06/09 09:24:22;;;;;;;2.33;0.50;;;;;;;21.62;31.52;92020.53;4733848;30;20040;-76
2022/06/09 09:26:57;;;;;;;1.63;0.68;;;;;;;21.85;28.28;92016.94;4733980;30;20043;-76
2022/06/09 09:29:48;;;;;;;2.55;0.47;;;;;;;21.75;30.54;92007.72;4734133;30;20462;-76
2022/06/09 09:32:22;;;;;;;1.48;0.85;;;;;;;22.10;28.75;92008.41;4732363;30;20511;-76
2022/06/09 09:34:50;;;;;;;0.50;0.50;;;;;;;22.11;30.00;92008.03;4747685;30;20063;-76
2022/06/09 09:37:32;;;;;;;2.15;0.55;;;;;;;22.32;27.92;92017.34;4734126;30;20558;-76
2022/06/09 09:40:10;;;;;;;0.73;0.50;;;;;;;22.55;31.31;92015.19;4744275;30;20052;-76
2022/06/09 09:42:37;;;;;;;4.15;0.70;;;;;;;22.66;27.13;92007.28;4751292;30;20040;-76
2022/06/09 09:45:16;;;;;;;0.38;0.38;;;;;;;22.24;33.61;91998.63;4751196;30;20551;-76
2022/06/09 09:47:57;;;;;;;0.55;0.32;;;;;;;22.51;26.16;92014.41;4751251;30;20534;-76
2022/06/09 09:50:41;;;;;;;1.50;0.52;;;;;;;22.19;30.00;92011.50;4751192;30;20055;-76
2022/06/09 09:53:26;;;;;;;2.20;1.00;;;;;;;22.10;29.58;92011.06;4751056;30;20055;-76
2022/06/09 09:55:58;;;;;;;0.70;0.40;;;;;;;21.72;29.18;92021.00;4735340;30;20070;-76
2022/06/09 09:58:42;;;;;;;;;;;;;;;21.52;29.62;92007.88;4751801;30;20553;-76
2022/06/09 10:01:14;;;;;;;0.65;0.30;;;;;;;21.82;29.21;92018.44;4750978;30;19925;-76
2022/06/09 10:09:37;;;;;;;0.40;0.40;;;;;;;21.77;27.68;92024.13;4751083;30;20067;-76
2022/06/09 10:12:09;;;;;;;0.85;0.40;;;;;;;21.99;30.41;92024.28;4750605;30;20048;-76
2022/06/09 10:14:39;;;;;;;;;;;;;;;21.94;30.01;92045.94;4751093;30;20051;-76
2022/06/09 10:17:18;;;;;;;2.47;0.55;;;;;;;21.34;28.40;92015.66;4734755;30;20045;-76
2022/06/09 10:19:50;;;;;;;2.38;0.70;;;;;;;21.23;29.04;92022.75;4734847;30;20123;-76
2022/06/09 10:22:19;;;;;;;0.80;0.30;;;;;;;21.19;29.04;92019.31;4750643;30;20044;-76
2022/06/09 10:24:58;;;;;;;3.65;0.30;;;;;;;21.16;30.14;92014.69;4734635;30;20090;-76
2022/06/09 10:27:38;;;;;;;2.10;0.70;;;;;;;21.42;30.66;92027.94;4750921;30;20086;-76
2022/06/09 10:30:17;;;;;;;1.90;0.73;;;;;;;21.74;29.90;92038.16;4749429;30;20515;-76
2022/06/09 10:32:50;;;;;;;1.85;0.70;;;;;;;21.53;27.83;92032.63;4735198;30;20116;-76
2022/06/09 10:35:26;;;;;;;1.65;0.70;;;;;;;21.33;29.26;92016.78;4750702;30;20396;-76
2022/06/09 10:37:56;;;;;;;1.15;0.43;;;;;;;21.45;29.33;92012.38;4750843;30;20075;-76
2022/06/09 10:40:47;;;;;;;2.33;0.70;;;;;;;21.57;28.94;92028.09;4728654;30;20528;-76
2022/06/09 10:43:19;;;;;;;9.43;0.95;;;;;;;21.53;26.95;92030.72;4747097;30;20127;-76
2022/06/09 10:45:53;;;;;;;1.35;0.55;;;;;;;21.72;27.87;92023.66;4750618;30;20415;-76
2022/06/09 10:55:18;;;;;;;3.67;0.50;;;;;;;21.87;26.58;92022.69;4747250;30;20048;-76
2022/06/09 10:58:15;;;;;;;1.30;0.60;;;;;;;21.52;27.59;92025.75;4749355;30;20573;-76
2022/06/09 11:00:49;;;;;;;1.17;0.32;;;;;;;21.75;26.15;92012.28;4750431;30;20048;-76
2022/06/09 11:03:20;;;;;;;1.95;0.70;;;;;;;21.80;29.04;92014.63;4750481;30;20044;-76
2022/06/09 11:06:08;;;;;;;3.40;0.88;;;;;;;22.06;25.83;92024.34;4733633;30;20501;-76
2022/06/09 11:08:52;;;;;;;1.77;0.65;;;;;;;22.19;28.69;92011.50;4732966;30;20471;-77
2022/06/09 11:11:52;;;;;;;3.35;0.68;;;;;;;22.49;25.51;92021.25;4731971;30;20139;-77
2022/06/09 11:14:26;;;;;;;0.88;0.60;;;;;;;22.53;26.25;92008.72;4730108;30;20408;-77
2022/06/09 11:17:17;;;;;;;4.15;0.70;;;;;;;22.61;25.49;92004.97;4716637;30;20435;-79
2022/06/09 11:20:01;;;;;;;1.00;0.57;;;;;;;22.67;26.11;92006.13;4721307;30;20044;-76
2022/06/09 11:22:59;;;;;;;5.25;0.70;;;;;;;22.83;27.40;92001.28;4734555;30;20500;-77
2022/06/09 11:26:01;;;;;;;1.95;0.88;;;;;;;22.48;25.43;91999.16;4737029;30;20040;-76
2022/06/09 11:29:02;;;;;;;2.38;0.80;;;;;;;22.59;25.46;92005.31;4734308;30;20098;-76
2022/06/09 11:31:52;;;;;;;2.60;0.68;;;;;;;22.08;25.62;92000.75;4705025;30;20147;-78
2022/06/09 11:34:24;;;;;;;0.82;0.55;;;;;;;21.83;23.25;91993.31;4721278;30;20047;-77
2022/06/09 11:36:56;;;;;;;7.22;0.80;;;;;;;22.21;27.59;92006.56;4721603;30;20397;-77
2022/06/09 11:39:37;;;;;;;1.58;0.73;;;;;;;22.61;24.65;91997.72;4742603;30;20311;-77
2022/06/09 11:42:21;;;;;;;2.33;0.80;;;;;;;22.54;26.19;92000.34;4739970;30;20119;-77
2022/06/09 11:44:51;;;;;;;1.70;0.75;;;;;;;22.64;25.73;91998.88;4756396;30;20103;-78
2022/06/09 11:47:20;;;;;;;0.95;0.70;;;;;;;22.95;28.09;91997.50;4757386;30;20418;-77
2022/06/09 11:49:48;;;;;;;2.20;0.60;;;;;;;23.12;26.83;92000.63;4756709;30;20047;-77
2022/06/09 11:52:29;;;;;;;1.90;0.80;;;;;;;23.04;23.09;92000.63;4759431;30;20032;-77
2022/06/09 11:54:55;;;;;;;2.53;0.80;;;;;;;22.34;23.99;91985.75;4757974;30;20584;-77
2022/06/09 11:57:25;;;;;;;1.08;0.52;;;;;;;22.40;24.59;92002.91;4769003;30;20048;-77
2022/06/09 12:00:24;;;;;;;1.80;0.75;;;;;;;22.35;24.44;92000.59;4757309;30;20275;-77
2022/06/09 12:02:59;;;;;;;1.05;0.57;;;;;;;21.98;23.85;91993.47;4756092;30;20515;-77
2022/06/09 12:05:46;;;;;;;1.75;0.68;;;;;;;22.40;26.14;91997.56;4759659;30;20044;-78
2022/06/09 12:08:31;;;;;;;4.65;0.70;;;;;;;22.80;25.74;91996.66;4759538;30;20055;-78
2022/06/09 12:11:03;;;;;;;1.23;0.65;;;;;;;22.74;25.34;91995.50;4760652;30;20135;-77
2022/06/09 12:13:45;;;;;;;2.47;0.57;;;;;;;23.05;25.95;91991.47;4774796;30;20040;-78
2022/06/09 12:16:29;;;;;;;1.92;0.50;;;;;;;23.13;24.35;91996.84;4760668;30;20384;-78